sensor_id;sensor_type;location;lat;lon;timestamp;P1;durP1;ratioP1;P2;durP2;ratioP2
18983;SDS011;9626;52.552;13.436;2022-07-22T00:00:12;7.03;;;5.60;;
18983;SDS011;9626;52.552;13.436;2022-07-22T00:02:38;5.80;;;5.20;;
18983;SDS011;9626;52.552;13.436;2022-07-22T00:05:04;7.50;;;5.50;;
18983;SDS011;9626;52.552;13.436;2022-07-22T00:07:31;7.53;;;5.63;;
18983;SDS011;9626;52.552;13.436;2022-07-22T00:09:56;6.75;;;5.07;;
18983;SDS011;9626;52.552;13.436;2022-07-22T00:12:22;6.70;;;5.30;;
18983;SDS011;9626;52.552;13.436;2022-07-22T00:14:48;7.68;;;5.72;;
18983;SDS011;9626;52.552;13.436;2022-07-22T00:17:13;6.80;;;5.68;;
18983;SDS011;9626;52.552;13.436;2022-07-22T00:19:39;9.27;;;5.60;;
18983;SDS011;9626;52.552;13.436;2022-07-22T00:22:04;7.50;;;5.10;;
18983;SDS011;9626;52.552;13.436;2022-07-22T00:24:30;5.25;;;4.50;;
18983;SDS011;9626;52.552;13.436;2022-07-22T00:26:55;5.63;;;5.00;;
18983;SDS011;9626;52.552;13.436;2022-07-22T00:29:21;5.15;;;4.63;;
18983;SDS011;9626;52.552;13.436;2022-07-22T00:31:46;6.53;;;4.88;;
18983;SDS011;9626;52.552;13.436;2022-07-22T00:34:12;6.07;;;5.28;;
18983;SDS011;9626;52.552;13.436;2022-07-22T00:36:38;5.45;;;4.95;;
18983;SDS011;9626;52.552;13.436;2022-07-22T00:39:03;4.90;;;4.45;;
18983;SDS011;9626;52.552;13.436;2022-07-22T00:41:29;4.78;;;4.38;;
18983;SDS011;9626;52.552;13.436;2022-07-22T00:43:57;5.00;;;4.30;;
18983;SDS011;9626;52.552;13.436;2022-07-22T00:46:26;5.72;;;4.25;;
18983;SDS011;9626;52.552;13.436;2022-07-22T00:48:53;4.97;;;4.47;;
18983;SDS011;9626;52.552;13.436;2022-07-22T00:51:19;4.68;;;4.18;;
18983;SDS011;9626;52.552;13.436;2022-07-22T00:53:47;5.15;;;3.78;;
18983;SDS011;9626;52.552;13.436;2022-07-22T00:56:14;4.32;;;3.92;;
18983;SDS011;9626;52.552;13.436;2022-07-22T00:58:41;4.90;;;4.15;;
18983;SDS011;9626;52.552;13.436;2022-07-22T01:01:06;4.88;;;4.10;;
18983;SDS011;9626;52.552;13.436;2022-07-22T01:03:32;4.68;;;4.25;;
18983;SDS011;9626;52.552;13.436;2022-07-22T01:05:58;5.65;;;4.60;;
18983;SDS011;9626;52.552;13.436;2022-07-22T01:08:24;4.72;;;4.25;;
18983;SDS011;9626;52.552;13.436;2022-07-22T01:10:49;4.22;;;3.83;;
18983;SDS011;9626;52.552;13.436;2022-07-22T01:13:15;4.70;;;3.70;;
18983;SDS011;9626;52.552;13.436;2022-07-22T01:15:41;11.60;;;4.07;;
18983;SDS011;9626;52.552;13.436;2022-07-22T01:18:06;4.90;;;3.83;;
18983;SDS011;9626;52.552;13.436;2022-07-22T01:20:33;5.45;;;4.18;;
18983;SDS011;9626;52.552;13.436;2022-07-22T01:22:59;5.10;;;4.20;;
18983;SDS011;9626;52.552;13.436;2022-07-22T01:25:25;4.13;;;3.63;;
18983;SDS011;9626;52.552;13.436;2022-07-22T01:27:51;6.50;;;3.92;;
18983;SDS011;9626;52.552;13.436;2022-07-22T01:30:35;4.45;;;4.05;;
18983;SDS011;9626;52.552;13.436;2022-07-22T01:33:00;5.32;;;4.30;;
18983;SDS011;9626;52.552;13.436;2022-07-22T01:35:26;3.70;;;3.40;;
18983;SDS011;9626;52.552;13.436;2022-07-22T01:37:51;4.35;;;3.95;;
18983;SDS011;9626;52.552;13.436;2022-07-22T01:40:17;6.32;;;4.63;;
18983;SDS011;9626;52.552;13.436;2022-07-22T01:42:42;5.28;;;4.10;;
18983;SDS011;9626;52.552;13.436;2022-07-22T01:45:08;4.68;;;3.88;;
18983;SDS011;9626;52.552;13.436;2022-07-22T01:47:34;4.40;;;3.90;;
18983;SDS011;9626;52.552;13.436;2022-07-22T01:49:59;4.20;;;3.60;;
18983;SDS011;9626;52.552;13.436;2022-07-22T01:52:25;4.95;;;3.53;;
18983;SDS011;9626;52.552;13.436;2022-07-22T01:54:50;5.13;;;3.88;;
18983;SDS011;9626;52.552;13.436;2022-07-22T01:57:16;5.22;;;4.10;;
18983;SDS011;9626;52.552;13.436;2022-07-22T01:59:41;5.18;;;3.80;;
18983;SDS011;9626;52.552;13.436;2022-07-22T02:02:07;4.60;;;4.13;;
18983;SDS011;9626;52.552;13.436;2022-07-22T02:04:32;4.23;;;3.77;;
18983;SDS011;9626;52.552;13.436;2022-07-22T02:06:58;6.50;;;5.90;;
18983;SDS011;9626;52.552;13.436;2022-07-22T02:09:23;4.55;;;4.07;;
18983;SDS011;9626;52.552;13.436;2022-07-22T02:11:49;5.13;;;3.88;;
18983;SDS011;9626;52.552;13.436;2022-07-22T02:14:14;4.27;;;3.87;;
18983;SDS011;9626;52.552;13.436;2022-07-22T02:16:40;6.35;;;4.10;;
18983;SDS011;9626;52.552;13.436;2022-07-22T02:19:05;4.27;;;3.87;;
18983;SDS011;9626;52.552;13.436;2022-07-22T02:21:31;5.00;;;4.17;;
18983;SDS011;9626;52.552;13.436;2022-07-22T02:23:56;5.10;;;3.83;;
18983;SDS011;9626;52.552;13.436;2022-07-22T02:26:22;4.55;;;4.15;;
18983;SDS011;9626;52.552;13.436;2022-07-22T02:28:47;5.20;;;3.90;;
18983;SDS011;9626;52.552;13.436;2022-07-22T02:31:13;4.87;;;4.43;;
18983;SDS011;9626;52.552;13.436;2022-07-22T02:33:39;5.10;;;4.50;;
18983;SDS011;9626;52.552;13.436;2022-07-22T02:36:04;5.10;;;4.53;;
18983;SDS011;9626;52.552;13.436;2022-07-22T02:38:30;5.10;;;4.60;;
18983;SDS011;9626;52.552;13.436;2022-07-22T02:40:56;8.00;;;4.80;;
18983;SDS011;9626;52.552;13.436;2022-07-22T02:43:21;6.57;;;4.47;;
18983;SDS011;9626;52.552;13.436;2022-07-22T02:45:47;5.00;;;4.60;;
18983;SDS011;9626;52.552;13.436;2022-07-22T02:48:12;6.27;;;4.77;;
18983;SDS011;9626;52.552;13.436;2022-07-22T02:50:38;5.43;;;4.47;;
18983;SDS011;9626;52.552;13.436;2022-07-22T02:53:04;5.13;;;4.53;;
18983;SDS011;9626;52.552;13.436;2022-07-22T02:55:29;6.23;;;4.90;;
18983;SDS011;9626;52.552;13.436;2022-07-22T02:57:55;5.30;;;4.67;;
18983;SDS011;9626;52.552;13.436;2022-07-22T03:00:20;5.65;;;4.95;;
18983;SDS011;9626;52.552;13.436;2022-07-22T03:02:46;7.47;;;5.10;;
18983;SDS011;9626;52.552;13.436;2022-07-22T03:05:11;6.80;;;5.57;;
18983;SDS011;9626;52.552;13.436;2022-07-22T03:07:37;5.77;;;5.20;;
18983;SDS011;9626;52.552;13.436;2022-07-22T03:10:03;6.07;;;5.37;;
18983;SDS011;9626;52.552;13.436;2022-07-22T03:12:30;5.97;;;5.37;;
18983;SDS011;9626;52.552;13.436;2022-07-22T03:14:55;6.57;;;5.47;;
18983;SDS011;9626;52.552;13.436;2022-07-22T03:17:21;6.53;;;5.83;;
18983;SDS011;9626;52.552;13.436;2022-07-22T03:19:47;6.73;;;5.80;;
18983;SDS011;9626;52.552;13.436;2022-07-22T03:22:12;5.97;;;5.47;;
18983;SDS011;9626;52.552;13.436;2022-07-22T03:24:38;6.37;;;5.63;;
18983;SDS011;9626;52.552;13.436;2022-07-22T03:27:03;6.73;;;6.13;;
18983;SDS011;9626;52.552;13.436;2022-07-22T03:29:29;7.90;;;6.13;;
18983;SDS011;9626;52.552;13.436;2022-07-22T03:31:54;7.60;;;5.90;;
18983;SDS011;9626;52.552;13.436;2022-07-22T03:34:19;6.77;;;5.93;;
18983;SDS011;9626;52.552;13.436;2022-07-22T03:36:45;7.13;;;6.43;;
18983;SDS011;9626;52.552;13.436;2022-07-22T03:39:10;9.63;;;6.90;;
18983;SDS011;9626;52.552;13.436;2022-07-22T03:41:36;7.20;;;6.50;;
18983;SDS011;9626;52.552;13.436;2022-07-22T03:44:02;6.60;;;5.90;;
18983;SDS011;9626;52.552;13.436;2022-07-22T03:46:27;7.50;;;6.80;;
18983;SDS011;9626;52.552;13.436;2022-07-22T03:48:53;7.00;;;6.00;;
18983;SDS011;9626;52.552;13.436;2022-07-22T03:51:18;7.40;;;6.70;;
18983;SDS011;9626;52.552;13.436;2022-07-22T03:53:44;10.50;;;7.27;;
18983;SDS011;9626;52.552;13.436;2022-07-22T03:56:09;7.77;;;7.00;;
18983;SDS011;9626;52.552;13.436;2022-07-22T03:58:35;9.35;;;7.45;;
18983;SDS011;9626;52.552;13.436;2022-07-22T04:01:00;8.17;;;7.07;;
18983;SDS011;9626;52.552;13.436;2022-07-22T04:03:26;8.77;;;7.83;;
18983;SDS011;9626;52.552;13.436;2022-07-22T04:05:51;8.83;;;8.03;;
18983;SDS011;9626;52.552;13.436;2022-07-22T04:08:17;9.27;;;8.30;;
18983;SDS011;9626;52.552;13.436;2022-07-22T04:10:43;9.13;;;8.33;;
18983;SDS011;9626;52.552;13.436;2022-07-22T04:13:09;8.90;;;8.00;;
18983;SDS011;9626;52.552;13.436;2022-07-22T04:15:35;9.57;;;7.77;;
18983;SDS011;9626;52.552;13.436;2022-07-22T04:18:01;9.37;;;8.20;;
18983;SDS011;9626;52.552;13.436;2022-07-22T04:20:27;10.20;;;8.40;;
18983;SDS011;9626;52.552;13.436;2022-07-22T04:22:52;9.40;;;8.40;;
18983;SDS011;9626;52.552;13.436;2022-07-22T04:25:18;9.63;;;8.60;;
18983;SDS011;9626;52.552;13.436;2022-07-22T04:27:44;8.70;;;7.47;;
18983;SDS011;9626;52.552;13.436;2022-07-22T04:30:09;9.60;;;8.57;;
18983;SDS011;9626;52.552;13.436;2022-07-22T04:32:35;11.07;;;8.80;;
18983;SDS011;9626;52.552;13.436;2022-07-22T04:35:01;8.60;;;7.70;;
18983;SDS011;9626;52.552;13.436;2022-07-22T04:37:27;9.63;;;8.63;;
18983;SDS011;9626;52.552;13.436;2022-07-22T04:39:53;9.93;;;8.93;;
18983;SDS011;9626;52.552;13.436;2022-07-22T04:42:18;9.80;;;8.80;;
18983;SDS011;9626;52.552;13.436;2022-07-22T04:44:44;10.70;;;9.07;;
18983;SDS011;9626;52.552;13.436;2022-07-22T04:47:10;9.83;;;8.93;;
18983;SDS011;9626;52.552;13.436;2022-07-22T04:49:36;11.07;;;9.97;;
18983;SDS011;9626;52.552;13.436;2022-07-22T04:52:02;10.13;;;9.13;;
18983;SDS011;9626;52.552;13.436;2022-07-22T04:54:28;12.73;;;10.40;;
18983;SDS011;9626;52.552;13.436;2022-07-22T04:56:53;11.23;;;10.13;;
18983;SDS011;9626;52.552;13.436;2022-07-22T04:59:19;12.63;;;10.20;;
18983;SDS011;9626;52.552;13.436;2022-07-22T05:01:44;12.50;;;10.40;;
18983;SDS011;9626;52.552;13.436;2022-07-22T05:04:10;11.27;;;10.23;;
18983;SDS011;9626;52.552;13.436;2022-07-22T05:06:35;11.90;;;10.00;;
18983;SDS011;9626;52.552;13.436;2022-07-22T05:09:01;12.33;;;11.03;;
18983;SDS011;9626;52.552;13.436;2022-07-22T05:11:27;11.30;;;10.20;;
18983;SDS011;9626;52.552;13.436;2022-07-22T05:13:52;11.67;;;10.47;;
18983;SDS011;9626;52.552;13.436;2022-07-22T05:16:18;15.87;;;10.87;;
18983;SDS011;9626;52.552;13.436;2022-07-22T05:18:43;13.00;;;10.10;;
18983;SDS011;9626;52.552;13.436;2022-07-22T05:21:09;12.83;;;9.73;;
18983;SDS011;9626;52.552;13.436;2022-07-22T05:23:34;12.67;;;10.50;;
18983;SDS011;9626;52.552;13.436;2022-07-22T05:26:00;14.57;;;9.67;;
18983;SDS011;9626;52.552;13.436;2022-07-22T05:28:25;11.47;;;10.10;;
18983;SDS011;9626;52.552;13.436;2022-07-22T05:30:51;11.90;;;10.30;;
18983;SDS011;9626;52.552;13.436;2022-07-22T05:33:17;13.00;;;10.47;;
18983;SDS011;9626;52.552;13.436;2022-07-22T05:35:42;10.85;;;9.75;;
18983;SDS011;9626;52.552;13.436;2022-07-22T05:38:08;13.80;;;10.47;;
18983;SDS011;9626;52.552;13.436;2022-07-22T05:40:33;11.52;;;9.80;;
18983;SDS011;9626;52.552;13.436;2022-07-22T05:42:59;11.37;;;10.27;;
18983;SDS011;9626;52.552;13.436;2022-07-22T05:45:24;11.13;;;10.03;;
18983;SDS011;9626;52.552;13.436;2022-07-22T05:47:50;11.32;;;9.77;;
18983;SDS011;9626;52.552;13.436;2022-07-22T05:50:15;12.13;;;9.83;;
18983;SDS011;9626;52.552;13.436;2022-07-22T05:52:41;12.77;;;10.20;;
18983;SDS011;9626;52.552;13.436;2022-07-22T05:55:07;12.13;;;10.83;;
18983;SDS011;9626;52.552;13.436;2022-07-22T05:57:33;12.43;;;11.10;;
18983;SDS011;9626;52.552;13.436;2022-07-22T05:59:59;12.17;;;10.17;;
18983;SDS011;9626;52.552;13.436;2022-07-22T06:02:24;10.23;;;9.32;;
18983;SDS011;9626;52.552;13.436;2022-07-22T06:04:50;11.63;;;10.43;;
18983;SDS011;9626;52.552;13.436;2022-07-22T06:07:15;10.83;;;9.40;;
18983;SDS011;9626;52.552;13.436;2022-07-22T06:09:41;12.50;;;10.37;;
18983;SDS011;9626;52.552;13.436;2022-07-22T06:12:07;10.30;;;9.40;;
18983;SDS011;9626;52.552;13.436;2022-07-22T06:14:32;11.10;;;10.00;;
18983;SDS011;9626;52.552;13.436;2022-07-22T06:16:59;11.67;;;10.57;;
18983;SDS011;9626;52.552;13.436;2022-07-22T06:19:24;10.47;;;9.20;;
18983;SDS011;9626;52.552;13.436;2022-07-22T06:21:50;11.07;;;9.97;;
18983;SDS011;9626;52.552;13.436;2022-07-22T06:24:15;10.50;;;9.50;;
18983;SDS011;9626;52.552;13.436;2022-07-22T06:26:41;12.43;;;10.10;;
18983;SDS011;9626;52.552;13.436;2022-07-22T06:29:09;11.67;;;10.50;;
18983;SDS011;9626;52.552;13.436;2022-07-22T06:31:34;10.93;;;9.80;;
18983;SDS011;9626;52.552;13.436;2022-07-22T06:34:00;11.27;;;10.27;;
18983;SDS011;9626;52.552;13.436;2022-07-22T06:36:33;9.80;;;8.88;;
18983;SDS011;9626;52.552;13.436;2022-07-22T06:38:59;10.70;;;8.50;;
18983;SDS011;9626;52.552;13.436;2022-07-22T06:41:25;10.17;;;9.13;;
18983;SDS011;9626;52.552;13.436;2022-07-22T06:43:50;10.13;;;9.05;;
18983;SDS011;9626;52.552;13.436;2022-07-22T06:46:16;10.07;;;9.07;;
18983;SDS011;9626;52.552;13.436;2022-07-22T06:48:42;10.80;;;9.70;;
18983;SDS011;9626;52.552;13.436;2022-07-22T06:51:08;9.43;;;8.57;;
18983;SDS011;9626;52.552;13.436;2022-07-22T06:53:33;9.98;;;8.98;;
18983;SDS011;9626;52.552;13.436;2022-07-22T06:55:59;9.90;;;8.68;;
18983;SDS011;9626;52.552;13.436;2022-07-22T06:58:25;10.70;;;9.70;;
18983;SDS011;9626;52.552;13.436;2022-07-22T07:00:50;9.98;;;9.02;;
18983;SDS011;9626;52.552;13.436;2022-07-22T07:03:16;11.35;;;9.43;;
18983;SDS011;9626;52.552;13.436;2022-07-22T07:05:42;12.13;;;9.63;;
18983;SDS011;9626;52.552;13.436;2022-07-22T07:08:07;10.30;;;9.30;;
18983;SDS011;9626;52.552;13.436;2022-07-22T07:10:33;10.07;;;9.07;;
18983;SDS011;9626;52.552;13.436;2022-07-22T07:12:58;10.27;;;9.10;;
18983;SDS011;9626;52.552;13.436;2022-07-22T07:15:24;9.45;;;8.55;;
18983;SDS011;9626;52.552;13.436;2022-07-22T07:17:51;12.23;;;9.30;;
18983;SDS011;9626;52.552;13.436;2022-07-22T07:20:18;9.32;;;8.43;;
18983;SDS011;9626;52.552;13.436;2022-07-22T07:22:44;14.07;;;10.10;;
18983;SDS011;9626;52.552;13.436;2022-07-22T07:25:10;10.18;;;9.30;;
18983;SDS011;9626;52.552;13.436;2022-07-22T07:27:35;9.73;;;8.80;;
18983;SDS011;9626;52.552;13.436;2022-07-22T07:30:02;9.10;;;8.25;;
18983;SDS011;9626;52.552;13.436;2022-07-22T07:32:29;8.88;;;7.65;;
18983;SDS011;9626;52.552;13.436;2022-07-22T07:34:54;8.85;;;8.05;;
18983;SDS011;9626;52.552;13.436;2022-07-22T07:37:20;9.38;;;8.38;;
18983;SDS011;9626;52.552;13.436;2022-07-22T07:39:45;9.73;;;8.85;;
18983;SDS011;9626;52.552;13.436;2022-07-22T07:42:11;9.05;;;7.85;;
18983;SDS011;9626;52.552;13.436;2022-07-22T07:44:36;8.48;;;7.72;;
18983;SDS011;9626;52.552;13.436;2022-07-22T07:47:02;9.43;;;7.75;;
18983;SDS011;9626;52.552;13.436;2022-07-22T07:49:28;10.50;;;7.38;;
18983;SDS011;9626;52.552;13.436;2022-07-22T07:51:53;8.45;;;7.63;;
18983;SDS011;9626;52.552;13.436;2022-07-22T07:54:19;9.25;;;7.68;;
18983;SDS011;9626;52.552;13.436;2022-07-22T07:56:45;9.38;;;7.38;;
18983;SDS011;9626;52.552;13.436;2022-07-22T07:59:10;8.45;;;7.63;;
18983;SDS011;9626;52.552;13.436;2022-07-22T08:01:55;8.55;;;6.63;;
18983;SDS011;9626;52.552;13.436;2022-07-22T08:04:21;7.68;;;6.88;;
18983;SDS011;9626;52.552;13.436;2022-07-22T08:06:46;7.05;;;5.90;;
18983;SDS011;9626;52.552;13.436;2022-07-22T08:09:12;10.05;;;6.20;;
18983;SDS011;9626;52.552;13.436;2022-07-22T08:11:38;7.13;;;6.47;;
18983;SDS011;9626;52.552;13.436;2022-07-22T08:14:03;5.50;;;5.00;;
18983;SDS011;9626;52.552;13.436;2022-07-22T08:16:29;6.68;;;5.65;;
18983;SDS011;9626;52.552;13.436;2022-07-22T08:18:55;7.82;;;5.50;;
18983;SDS011;9626;52.552;13.436;2022-07-22T08:21:20;5.85;;;5.25;;
18983;SDS011;9626;52.552;13.436;2022-07-22T08:23:46;5.38;;;4.88;;
18983;SDS011;9626;52.552;13.436;2022-07-22T08:26:11;5.38;;;4.82;;
18983;SDS011;9626;52.552;13.436;2022-07-22T08:28:37;8.00;;;5.07;;
18983;SDS011;9626;52.552;13.436;2022-07-22T08:31:02;5.45;;;4.95;;
18983;SDS011;9626;52.552;13.436;2022-07-22T08:33:28;4.97;;;4.57;;
18983;SDS011;9626;52.552;13.436;2022-07-22T08:35:54;4.85;;;3.97;;
18983;SDS011;9626;52.552;13.436;2022-07-22T08:38:19;4.28;;;3.95;;
18983;SDS011;9626;52.552;13.436;2022-07-22T08:40:45;6.82;;;4.35;;
18983;SDS011;9626;52.552;13.436;2022-07-22T08:43:10;5.50;;;4.10;;
18983;SDS011;9626;52.552;13.436;2022-07-22T08:45:36;5.82;;;4.20;;
18983;SDS011;9626;52.552;13.436;2022-07-22T08:48:02;4.40;;;4.00;;
18983;SDS011;9626;52.552;13.436;2022-07-22T08:50:30;3.90;;;3.60;;
18983;SDS011;9626;52.552;13.436;2022-07-22T08:52:56;4.85;;;3.85;;
18983;SDS011;9626;52.552;13.436;2022-07-22T08:55:22;5.00;;;4.20;;
18983;SDS011;9626;52.552;13.436;2022-07-22T08:57:49;5.03;;;4.63;;
18983;SDS011;9626;52.552;13.436;2022-07-22T09:00:19;6.43;;;4.30;;
18983;SDS011;9626;52.552;13.436;2022-07-22T09:02:46;5.15;;;4.65;;
18983;SDS011;9626;52.552;13.436;2022-07-22T09:05:13;4.88;;;4.32;;
18983;SDS011;9626;52.552;13.436;2022-07-22T09:07:41;7.05;;;4.35;;
18983;SDS011;9626;52.552;13.436;2022-07-22T09:10:09;4.95;;;4.45;;
18983;SDS011;9626;52.552;13.436;2022-07-22T09:12:56;5.13;;;4.13;;
18983;SDS011;9626;52.552;13.436;2022-07-22T09:15:25;4.68;;;4.28;;
18983;SDS011;9626;52.552;13.436;2022-07-22T09:17:53;3.72;;;3.42;;
18983;SDS011;9626;52.552;13.436;2022-07-22T09:20:18;4.45;;;3.90;;
18983;SDS011;9626;52.552;13.436;2022-07-22T09:22:45;4.38;;;3.97;;
18983;SDS011;9626;52.552;13.436;2022-07-22T09:30:34;5.43;;;3.53;;
18983;SDS011;9626;52.552;13.436;2022-07-22T09:33:02;4.20;;;3.85;;
18983;SDS011;9626;52.552;13.436;2022-07-22T09:35:28;4.53;;;3.63;;
18983;SDS011;9626;52.552;13.436;2022-07-22T09:37:55;4.85;;;3.80;;
18983;SDS011;9626;52.552;13.436;2022-07-22T09:40:24;4.97;;;3.92;;
18983;SDS011;9626;52.552;13.436;2022-07-22T09:42:56;4.53;;;4.05;;
18983;SDS011;9626;52.552;13.436;2022-07-22T09:45:24;4.25;;;3.60;;
18983;SDS011;9626;52.552;13.436;2022-07-22T09:47:51;4.90;;;3.70;;
18983;SDS011;9626;52.552;13.436;2022-07-22T09:50:24;4.13;;;3.45;;
18983;SDS011;9626;52.552;13.436;2022-07-22T09:52:52;4.85;;;3.08;;
18983;SDS011;9626;52.552;13.436;2022-07-22T09:55:21;5.25;;;3.70;;
18983;SDS011;9626;52.552;13.436;2022-07-22T09:57:48;3.47;;;3.20;;
18983;SDS011;9626;52.552;13.436;2022-07-22T10:00:16;4.43;;;3.35;;
18983;SDS011;9626;52.552;13.436;2022-07-22T10:02:49;3.53;;;3.22;;
18983;SDS011;9626;52.552;13.436;2022-07-22T10:05:17;3.20;;;3.00;;
18983;SDS011;9626;52.552;13.436;2022-07-22T10:07:48;3.28;;;3.00;;
18983;SDS011;9626;52.552;13.436;2022-07-22T10:10:15;4.03;;;3.63;;
18983;SDS011;9626;52.552;13.436;2022-07-22T10:12:47;3.03;;;2.40;;
18983;SDS011;9626;52.552;13.436;2022-07-22T10:15:14;6.25;;;2.60;;
18983;SDS011;9626;52.552;13.436;2022-07-22T10:17:41;2.40;;;2.20;;
18983;SDS011;9626;52.552;13.436;2022-07-22T10:20:09;2.40;;;2.30;;
18983;SDS011;9626;52.552;13.436;2022-07-22T10:25:05;2.17;;;1.85;;
18983;SDS011;9626;52.552;13.436;2022-07-22T10:30:31;2.25;;;2.10;;
18983;SDS011;9626;52.552;13.436;2022-07-22T10:35:30;2.15;;;2.00;;
18983;SDS011;9626;52.552;13.436;2022-07-22T10:37:59;1.90;;;1.80;;
18983;SDS011;9626;52.552;13.436;2022-07-22T10:40:27;2.17;;;2.05;;
18983;SDS011;9626;52.552;13.436;2022-07-22T10:43:16;1.90;;;1.80;;
18983;SDS011;9626;52.552;13.436;2022-07-22T10:45:59;2.30;;;2.10;;
18983;SDS011;9626;52.552;13.436;2022-07-22T10:51:18;2.22;;;2.13;;
18983;SDS011;9626;52.552;13.436;2022-07-22T10:56:19;2.10;;;2.00;;
18983;SDS011;9626;52.552;13.436;2022-07-22T10:58:54;2.00;;;1.90;;
18983;SDS011;9626;52.552;13.436;2022-07-22T11:01:30;2.33;;;1.77;;
18983;SDS011;9626;52.552;13.436;2022-07-22T11:04:06;2.22;;;2.03;;
18983;SDS011;9626;52.552;13.436;2022-07-22T11:06:33;2.97;;;2.10;;
18983;SDS011;9626;52.552;13.436;2022-07-22T11:09:01;2.55;;;2.30;;
18983;SDS011;9626;52.552;13.436;2022-07-22T11:14:20;4.40;;;4.00;;
18983;SDS011;9626;52.552;13.436;2022-07-22T11:16:46;3.00;;;2.72;;
18983;SDS011;9626;52.552;13.436;2022-07-22T11:19:13;2.63;;;2.42;;
18983;SDS011;9626;52.552;13.436;2022-07-22T11:21:39;4.40;;;2.70;;
18983;SDS011;9626;52.552;13.436;2022-07-22T11:24:06;2.97;;;2.70;;
18983;SDS011;9626;52.552;13.436;2022-07-22T11:26:34;4.03;;;3.15;;
18983;SDS011;9626;52.552;13.436;2022-07-22T11:31:54;4.28;;;3.13;;
18983;SDS011;9626;52.552;13.436;2022-07-22T11:34:21;3.85;;;3.50;;
18983;SDS011;9626;52.552;13.436;2022-07-22T11:36:48;4.05;;;3.75;;
18983;SDS011;9626;52.552;13.436;2022-07-22T11:39:17;3.90;;;3.60;;
18983;SDS011;9626;52.552;13.436;2022-07-22T11:41:47;4.28;;;3.80;;
18983;SDS011;9626;52.552;13.436;2022-07-22T11:44:16;4.00;;;3.13;;
18983;SDS011;9626;52.552;13.436;2022-07-22T11:46:43;3.97;;;3.63;;
18983;SDS011;9626;52.552;13.436;2022-07-22T11:49:09;3.90;;;3.60;;
18983;SDS011;9626;52.552;13.436;2022-07-22T11:51:39;3.60;;;3.30;;
18983;SDS011;9626;52.552;13.436;2022-07-22T11:54:05;3.85;;;3.55;;
18983;SDS011;9626;52.552;13.436;2022-07-22T11:56:31;3.53;;;3.22;;
18983;SDS011;9626;52.552;13.436;2022-07-22T11:58:57;3.30;;;3.00;;
18983;SDS011;9626;52.552;13.436;2022-07-22T12:01:25;3.15;;;2.95;;
18983;SDS011;9626;52.552;13.436;2022-07-22T12:03:53;3.25;;;2.95;;
18983;SDS011;9626;52.552;13.436;2022-07-22T12:06:21;4.30;;;3.00;;
18983;SDS011;9626;52.552;13.436;2022-07-22T12:08:49;2.97;;;2.67;;
18983;SDS011;9626;52.552;13.436;2022-07-22T12:11:17;3.88;;;2.92;;
18983;SDS011;9626;52.552;13.436;2022-07-22T12:13:45;4.10;;;2.88;;
18983;SDS011;9626;52.552;13.436;2022-07-22T12:16:16;3.45;;;2.72;;
18983;SDS011;9626;52.552;13.436;2022-07-22T12:18:43;3.03;;;2.83;;
18983;SDS011;9626;52.552;13.436;2022-07-22T12:21:08;2.97;;;2.78;;
18983;SDS011;9626;52.552;13.436;2022-07-22T12:23:34;3.60;;;2.70;;
18983;SDS011;9626;52.552;13.436;2022-07-22T12:26:00;2.72;;;2.53;;
18983;SDS011;9626;52.552;13.436;2022-07-22T12:28:26;4.13;;;2.22;;
18983;SDS011;9626;52.552;13.436;2022-07-22T12:30:53;3.05;;;2.33;;
18983;SDS011;9626;52.552;13.436;2022-07-22T12:33:21;2.83;;;2.63;;
18983;SDS011;9626;52.552;13.436;2022-07-22T12:36:06;5.63;;;3.28;;
18983;SDS011;9626;52.552;13.436;2022-07-22T12:38:32;3.75;;;2.78;;
18983;SDS011;9626;52.552;13.436;2022-07-22T12:43:54;3.40;;;2.80;;
18983;SDS011;9626;52.552;13.436;2022-07-22T12:46:21;3.20;;;2.50;;
18983;SDS011;9626;52.552;13.436;2022-07-22T12:48:53;2.38;;;2.17;;
18983;SDS011;9626;52.552;13.436;2022-07-22T12:51:19;3.92;;;2.25;;
18983;SDS011;9626;52.552;13.436;2022-07-22T12:53:45;2.03;;;1.80;;
18983;SDS011;9626;52.552;13.436;2022-07-22T12:56:11;3.53;;;1.90;;
18983;SDS011;9626;52.552;13.436;2022-07-22T12:58:36;2.40;;;2.20;;
18983;SDS011;9626;52.552;13.436;2022-07-22T13:01:05;2.20;;;1.98;;
18983;SDS011;9626;52.552;13.436;2022-07-22T13:03:31;1.70;;;1.60;;
18983;SDS011;9626;52.552;13.436;2022-07-22T13:05:58;1.90;;;1.60;;
18983;SDS011;9626;52.552;13.436;2022-07-22T13:08:26;4.32;;;1.80;;
18983;SDS011;9626;52.552;13.436;2022-07-22T13:10:52;1.80;;;1.70;;
18983;SDS011;9626;52.552;13.436;2022-07-22T13:13:19;2.03;;;1.70;;
18983;SDS011;9626;52.552;13.436;2022-07-22T13:15:45;1.80;;;1.52;;
18983;SDS011;9626;52.552;13.436;2022-07-22T13:18:11;2.55;;;1.73;;
18983;SDS011;9626;52.552;13.436;2022-07-22T13:20:37;1.90;;;1.80;;
18983;SDS011;9626;52.552;13.436;2022-07-22T13:23:03;1.60;;;1.50;;
18983;SDS011;9626;52.552;13.436;2022-07-22T13:25:29;1.80;;;1.55;;
18983;SDS011;9626;52.552;13.436;2022-07-22T13:27:56;1.77;;;1.67;;
18983;SDS011;9626;52.552;13.436;2022-07-22T13:30:22;1.70;;;1.60;;
18983;SDS011;9626;52.552;13.436;2022-07-22T13:32:48;1.55;;;1.45;;
18983;SDS011;9626;52.552;13.436;2022-07-22T13:35:13;1.60;;;1.50;;
18983;SDS011;9626;52.552;13.436;2022-07-22T13:37:39;2.30;;;1.55;;
18983;SDS011;9626;52.552;13.436;2022-07-22T13:40:05;2.03;;;1.83;;
18983;SDS011;9626;52.552;13.436;2022-07-22T13:42:31;1.85;;;1.60;;
18983;SDS011;9626;52.552;13.436;2022-07-22T13:44:56;2.10;;;1.42;;
18983;SDS011;9626;52.552;13.436;2022-07-22T13:47:22;1.40;;;1.30;;
18983;SDS011;9626;52.552;13.436;2022-07-22T13:49:48;1.70;;;1.60;;
18983;SDS011;9626;52.552;13.436;2022-07-22T13:52:14;1.70;;;1.60;;
18983;SDS011;9626;52.552;13.436;2022-07-22T13:54:41;1.45;;;1.35;;
18983;SDS011;9626;52.552;13.436;2022-07-22T13:57:06;1.42;;;1.33;;
18983;SDS011;9626;52.552;13.436;2022-07-22T13:59:33;1.40;;;1.30;;
18983;SDS011;9626;52.552;13.436;2022-07-22T14:01:59;1.40;;;1.30;;
18983;SDS011;9626;52.552;13.436;2022-07-22T14:04:26;1.42;;;1.20;;
18983;SDS011;9626;52.552;13.436;2022-07-22T14:06:52;1.80;;;1.38;;
18983;SDS011;9626;52.552;13.436;2022-07-22T14:09:18;2.20;;;1.55;;
18983;SDS011;9626;52.552;13.436;2022-07-22T14:11:44;1.52;;;1.25;;
18983;SDS011;9626;52.552;13.436;2022-07-22T14:14:09;1.02;;;1.02;;
18983;SDS011;9626;52.552;13.436;2022-07-22T14:16:35;1.40;;;1.30;;
18983;SDS011;9626;52.552;13.436;2022-07-22T14:19:03;1.75;;;1.17;;
18983;SDS011;9626;52.552;13.436;2022-07-22T14:21:37;1.40;;;1.30;;
18983;SDS011;9626;52.552;13.436;2022-07-22T14:24:05;1.42;;;1.33;;
18983;SDS011;9626;52.552;13.436;2022-07-22T14:26:32;1.30;;;1.20;;
18983;SDS011;9626;52.552;13.436;2022-07-22T14:28:58;3.20;;;1.40;;
18983;SDS011;9626;52.552;13.436;2022-07-22T14:31:24;1.65;;;1.40;;
18983;SDS011;9626;52.552;13.436;2022-07-22T14:33:49;2.78;;;1.52;;
18983;SDS011;9626;52.552;13.436;2022-07-22T14:36:15;1.50;;;1.40;;
18983;SDS011;9626;52.552;13.436;2022-07-22T14:38:41;1.83;;;1.23;;
18983;SDS011;9626;52.552;13.436;2022-07-22T14:41:07;1.27;;;1.17;;
18983;SDS011;9626;52.552;13.436;2022-07-22T14:43:33;2.65;;;1.10;;
18983;SDS011;9626;52.552;13.436;2022-07-22T14:46:00;3.45;;;1.30;;
18983;SDS011;9626;52.552;13.436;2022-07-22T14:48:26;1.10;;;1.10;;
18983;SDS011;9626;52.552;13.436;2022-07-22T14:50:53;1.25;;;1.20;;
18983;SDS011;9626;52.552;13.436;2022-07-22T14:53:18;2.50;;;1.98;;
18983;SDS011;9626;52.552;13.436;2022-07-22T14:55:44;1.33;;;1.23;;
18983;SDS011;9626;52.552;13.436;2022-07-22T14:58:10;1.17;;;1.10;;
18983;SDS011;9626;52.552;13.436;2022-07-22T15:00:35;1.33;;;1.10;;
18983;SDS011;9626;52.552;13.436;2022-07-22T15:03:01;6.03;;;1.30;;
18983;SDS011;9626;52.552;13.436;2022-07-22T15:05:26;1.58;;;1.48;;